createdAt,value
2023-02-27T00:02:17.942Z,99231.19
2023-02-27T00:04:45.681Z,99220.84
2023-02-27T00:07:13.583Z,99219.88
2023-02-27T00:09:42.691Z,99222.81
2023-02-27T00:12:11.980Z,99222.03
2023-02-27T00:14:39.879Z,99217.06
2023-02-27T00:17:07.953Z,99220.81
2023-02-27T00:19:35.814Z,99220.31
2023-02-27T00:22:03.485Z,99212.16
2023-02-27T00:24:31.389Z,99223.31
2023-02-27T00:27:00.489Z,99217.91
2023-02-27T00:29:28.819Z,99223.59
2023-02-27T00:31:56.644Z,99215.50
2023-02-27T00:34:25.348Z,99221.69
2023-02-27T00:36:54.007Z,99228.50
2023-02-27T00:39:21.771Z,99217.72
2023-02-27T00:41:49.472Z,99218.78
2023-02-27T00:44:18.663Z,99210.94
2023-02-27T00:46:47.018Z,99214.16
2023-02-27T00:49:14.843Z,99214.41
2023-02-27T00:51:42.865Z,99221.19
2023-02-27T00:54:10.859Z,99213.81
2023-02-27T00:56:38.588Z,99229.56
2023-02-27T00:59:06.482Z,99226.72
2023-02-27T01:01:35.560Z,99225.94
2023-02-27T01:04:03.616Z,99224.09
2023-02-27T01:06:31.555Z,99223.53
2023-02-27T01:08:59.301Z,99216.75
2023-02-27T01:11:27.374Z,99208.91
2023-02-27T01:13:55.368Z,99213.06
2023-02-27T01:16:23.313Z,99215.53
2023-02-27T01:18:54.057Z,99213.34
2023-02-27T01:21:24.242Z,99207.13
2023-02-27T01:23:52.296Z,99208.22
2023-02-27T01:26:20.578Z,99208.75
2023-02-27T01:28:48.528Z,99203.53
2023-02-27T01:31:16.396Z,99206.31
2023-02-27T01:33:44.118Z,99212.03
2023-02-27T01:36:13.364Z,99203.84
2023-02-27T01:38:41.240Z,99212.19
2023-02-27T01:41:08.953Z,99208.13
2023-02-27T01:43:58.289Z,99209.03
2023-02-27T01:46:26.518Z,99216.06
2023-02-27T01:48:59.668Z,99205.75
2023-02-27T01:51:34.061Z,99204.88
2023-02-27T01:54:04.228Z,99203.63
2023-02-27T01:56:33.567Z,99204.75
2023-02-27T01:59:08.781Z,99200.94
2023-02-27T02:01:37.290Z,99202.03
2023-02-27T02:04:11.368Z,99199.31
2023-02-27T02:06:45.138Z,99207.72
2023-02-27T02:09:16.892Z,99192.25
2023-02-27T02:11:45.302Z,99202.53
2023-02-27T02:14:13.135Z,99207.41
2023-02-27T02:17:13.758Z,99210.66
2023-02-27T02:20:26.946Z,99205.47
2023-02-27T02:23:23.668Z,99205.81
2023-02-27T02:26:13.854Z,99206.63
2023-02-27T02:29:07.982Z,99200.41
2023-02-27T02:31:58.689Z,99203.66
2023-02-27T02:34:57.144Z,99203.59
2023-02-27T02:37:59.271Z,99212.84
2023-02-27T02:40:38.264Z,99208.53
2023-02-27T02:43:13.336Z,99202.00
2023-02-27T02:45:49.575Z,99207.69
2023-02-27T02:48:26.645Z,99208.50
2023-02-27T02:51:02.434Z,99215.19
2023-02-27T02:53:37.386Z,99209.47
2023-02-27T02:56:14.074Z,99206.88
2023-02-27T02:58:46.721Z,99207.19
2023-02-27T03:01:17.770Z,99207.09
2023-02-27T03:03:50.687Z,99217.34
2023-02-27T03:06:23.277Z,99216.31
2023-02-27T03:08:56.257Z,99220.69
2023-02-27T03:11:30.311Z,99220.59
2023-02-27T03:14:04.692Z,99219.59
2023-02-27T03:16:35.273Z,99211.19
2023-02-27T03:19:10.138Z,99221.50
2023-02-27T03:21:45.068Z,99220.69
2023-02-27T03:24:19.679Z,99224.22
2023-02-27T03:26:52.860Z,99220.94
2023-02-27T03:29:27.400Z,99217.16
2023-02-27T03:31:58.228Z,99226.34
2023-02-27T03:34:30.414Z,99229.03
2023-02-27T03:37:06.460Z,99225.22
2023-02-27T03:39:45.607Z,99228.97
2023-02-27T03:42:25.379Z,99227.94
2023-02-27T03:45:34.761Z,99229.84
2023-02-27T03:48:04.458Z,99232.84
2023-02-27T03:50:32.265Z,99233.66
2023-02-27T03:53:00.385Z,99234.47
2023-02-27T03:55:33.641Z,99237.97
2023-02-27T03:58:03.262Z,99249.06
2023-02-27T04:00:31.175Z,99243.34
2023-02-27T04:03:01.461Z,99245.19
2023-02-27T04:05:31.118Z,99258.50
2023-02-27T04:08:27.025Z,99258.22
2023-02-27T04:11:18.805Z,99254.94
2023-02-27T04:13:58.686Z,99253.91
2023-02-27T04:16:47.033Z,99261.47
2023-02-27T04:19:24.837Z,99265.53
2023-02-27T04:22:02.125Z,99254.44
2023-02-27T04:24:37.560Z,99256.34
2023-02-27T04:27:15.603Z,99254.44
2023-02-27T04:29:55.262Z,99257.16
2023-02-27T04:32:31.542Z,99255.00
2023-02-27T04:35:03.496Z,99258.25
2023-02-27T04:37:37.385Z,99244.72
2023-02-27T04:40:09.840Z,99250.13
2023-02-27T04:42:42.919Z,99246.91
2023-02-27T04:45:15.883Z,99266.06
2023-02-27T04:47:48.566Z,99257.16
2023-02-27T04:50:20.377Z,99260.38
2023-02-27T04:52:53.974Z,99259.28
2023-02-27T04:55:25.348Z,99253.09
2023-02-27T04:57:56.793Z,99254.97
2023-02-27T05:00:28.266Z,99257.69
2023-02-27T05:03:01.226Z,99257.69
2023-02-27T05:05:33.342Z,99261.19
2023-02-27T05:08:08.061Z,99263.06
2023-02-27T05:10:40.077Z,99257.66
2023-02-27T05:13:14.346Z,99264.72
2023-02-27T05:15:48.428Z,99268.16
2023-02-27T05:18:20.139Z,99263.06
2023-02-27T05:20:56.133Z,99262.28
2023-02-27T05:23:33.604Z,99254.69
2023-02-27T05:26:06.768Z,99255.47
2023-02-27T05:28:37.868Z,99257.94
2023-02-27T05:31:16.326Z,99265.47
2023-02-27T05:33:48.530Z,99271.38
2023-02-27T05:36:22.036Z,99270.09
2023-02-27T05:38:53.931Z,99287.41
2023-02-27T05:41:27.545Z,99290.66
2023-02-27T05:43:59.762Z,99281.38
2023-02-27T05:46:33.425Z,99283.56
2023-02-27T05:49:05.109Z,99289.56
2023-02-27T05:51:36.703Z,99297.69
2023-02-27T05:54:08.856Z,99294.38
2023-02-27T05:56:38.233Z,99294.31
2023-02-27T05:59:09.715Z,99297.69
2023-02-27T06:01:38.871Z,99289.00
2023-02-27T06:04:06.622Z,99296.31
2023-02-27T06:06:36.876Z,99297.16
2023-02-27T06:09:04.838Z,99293.38
2023-02-27T06:11:32.559Z,99294.72
2023-02-27T06:14:00.275Z,99296.59
2023-02-27T06:16:28.325Z,99304.91
2023-02-27T06:18:57.566Z,99298.38
2023-02-27T06:21:25.364Z,99300.59
2023-02-27T06:23:53.044Z,99297.88
2023-02-27T06:26:20.751Z,99303.25
2023-02-27T06:28:48.462Z,99309.59
2023-02-27T06:31:16.511Z,99302.94
2023-02-27T06:33:44.311Z,99312.44
2023-02-27T06:36:13.488Z,99317.69
2023-02-27T06:38:41.586Z,99316.38
2023-02-27T06:41:09.406Z,99320.69
2023-02-27T06:43:37.189Z,99320.41
2023-02-27T06:46:05.348Z,99314.13
2023-02-27T06:48:34.601Z,99317.97
2023-02-27T06:51:03.450Z,99321.50
2023-02-27T06:53:32.600Z,99321.50
2023-02-27T06:56:00.389Z,99328.50
2023-02-27T06:58:28.212Z,99323.13
2023-02-27T07:00:55.962Z,99324.41
2023-02-27T07:03:23.667Z,99327.72
2023-02-27T07:05:51.428Z,99328.78
2023-02-27T07:08:19.143Z,99331.97
2023-02-27T07:10:49.058Z,99331.75
2023-02-27T07:13:19.496Z,99327.34
2023-02-27T07:15:47.831Z,99328.22
2023-02-27T07:18:16.319Z,99333.66
2023-02-27T07:20:44.034Z,99332.22
2023-02-27T07:23:11.764Z,99337.16
2023-02-27T07:25:39.530Z,99344.41
2023-02-27T07:28:08.687Z,99339.56
2023-02-27T07:30:37.931Z,99332.22
2023-02-27T07:33:05.970Z,99345.03
2023-02-27T07:35:33.665Z,99338.91
2023-02-27T07:38:01.587Z,99348.03
2023-02-27T07:40:29.847Z,99345.44
2023-02-27T07:42:57.563Z,99342.00
2023-02-27T07:45:27.051Z,99351.75
2023-02-27T07:47:54.793Z,99345.34
2023-02-27T07:50:22.469Z,99350.13
2023-02-27T07:52:50.365Z,99350.06
2023-02-27T07:55:18.201Z,99347.41
2023-02-27T07:57:46.521Z,99345.59
2023-02-27T08:00:15.382Z,99345.28
2023-02-27T08:02:44.534Z,99344.91
2023-02-27T08:05:12.376Z,99345.22
2023-02-27T08:07:40.312Z,99346.13
2023-02-27T08:10:08.836Z,99346.28
2023-02-27T08:12:36.582Z,99347.75
2023-02-27T08:15:04.972Z,99346.50
2023-02-27T08:17:32.813Z,99345.06
2023-02-27T08:20:01.853Z,99354.69
2023-02-27T08:22:29.662Z,99351.06
2023-02-27T08:24:57.305Z,99350.13
2023-02-27T08:27:25.147Z,99355.03
2023-02-27T08:29:52.917Z,99355.25
2023-02-27T08:32:20.824Z,99356.69
2023-02-27T08:34:48.585Z,99360.34
2023-02-27T08:37:17.722Z,99360.78
2023-02-27T08:39:45.528Z,99351.13
2023-02-27T08:42:13.298Z,99352.19
2023-02-27T08:44:41.057Z,99349.66
2023-02-27T08:47:08.795Z,99350.97
2023-02-27T08:49:36.718Z,99348.81
2023-02-27T08:52:05.527Z,99353.84
2023-02-27T08:54:34.956Z,99360.41
2023-02-27T08:57:02.732Z,99353.16
2023-02-27T08:59:30.531Z,99359.47
2023-02-27T09:01:58.990Z,99358.06
2023-02-27T09:04:27.291Z,99360.53
2023-02-27T09:06:55.076Z,99371.66
2023-02-27T09:09:23.710Z,99366.00
2023-02-27T09:11:53.108Z,99362.78
2023-02-27T09:14:21.131Z,99363.75
2023-02-27T09:16:48.856Z,99355.94
2023-02-27T09:19:16.953Z,99358.19
2023-02-27T09:21:44.700Z,99352.03
2023-02-27T09:24:19.710Z,99356.63
2023-02-27T09:26:48.678Z,99366.06
2023-02-27T09:29:18.492Z,99360.72
2023-02-27T09:31:47.398Z,99373.19
2023-02-27T09:34:15.376Z,99358.81
2023-02-27T09:36:43.112Z,99371.16
2023-02-27T09:39:11.307Z,99373.81
2023-02-27T09:41:52.893Z,99379.25
2023-02-27T09:44:45.307Z,99383.84
2023-02-27T09:47:19.226Z,99376.44
2023-02-27T09:49:58.770Z,99374.28
2023-02-27T09:52:27.394Z,99381.53
2023-02-27T09:54:55.369Z,99379.25
2023-02-27T09:57:37.598Z,99372.38
2023-02-27T10:00:14.132Z,99386.63
2023-02-27T10:02:52.694Z,99378.94
2023-02-27T10:05:32.467Z,99386.38
2023-02-27T10:08:07.586Z,99387.66
2023-02-27T10:10:41.843Z,99381.94
2023-02-27T10:13:47.456Z,99391.44
2023-02-27T10:16:20.556Z,99387.31
2023-02-27T10:18:55.706Z,99396.88
2023-02-27T10:21:31.030Z,99400.34
2023-02-27T10:24:02.964Z,99399.09
2023-02-27T10:26:36.931Z,99402.78
2023-02-27T10:29:18.468Z,99399.34
2023-02-27T10:31:48.936Z,99411.72
2023-02-27T10:34:17.334Z,99409.59
2023-02-27T10:36:47.436Z,99406.19
2023-02-27T10:39:20.871Z,99406.81
2023-02-27T10:41:49.829Z,99400.47
2023-02-27T10:44:19.001Z,99406.63
2023-02-27T10:46:51.811Z,99407.66
2023-02-27T10:49:22.040Z,99406.69
2023-02-27T10:52:08.606Z,99408.16
2023-02-27T10:54:37.188Z,99401.13
2023-02-27T10:57:19.466Z,99407.69
2023-02-27T10:59:53.860Z,99394.59
2023-02-27T11:02:24.238Z,99400.41
2023-02-27T11:04:54.727Z,99396.31
2023-02-27T11:07:33.035Z,99389.28
2023-02-27T11:10:05.441Z,99387.50
2023-02-27T11:12:36.142Z,99393.47
2023-02-27T11:15:23.010Z,99383.41
2023-02-27T11:17:53.027Z,99381.16
2023-02-27T11:20:35.540Z,99379.72
2023-02-27T11:23:05.364Z,99389.59
2023-02-27T11:25:33.931Z,99377.72
2023-02-27T11:28:23.989Z,99376.75
2023-02-27T11:31:00.586Z,99379.81
2023-02-27T11:33:32.767Z,99371.38
2023-02-27T11:36:01.477Z,99376.34
2023-02-27T11:38:31.167Z,99388.31
2023-02-27T11:41:00.566Z,99367.66
2023-02-27T11:43:30.361Z,99371.38
2023-02-27T11:46:10.185Z,99372.16
2023-02-27T11:48:52.311Z,99369.94
2023-02-27T11:51:36.758Z,99367.50
2023-02-27T11:54:15.667Z,99368.66
2023-02-27T11:56:45.871Z,99364.09
2023-02-27T11:59:21.883Z,99373.78
2023-02-27T12:01:54.081Z,99373.97
2023-02-27T12:04:27.869Z,99380.09
2023-02-27T12:07:02.382Z,99375.72
2023-02-27T12:09:37.156Z,99384.91
2023-02-27T12:12:14.992Z,99377.00
2023-02-27T12:14:50.801Z,99382.84
2023-02-27T12:17:23.974Z,99377.47
2023-02-27T12:20:02.136Z,99371.09
2023-02-27T12:22:34.268Z,99369.78
2023-02-27T12:25:08.076Z,99369.28
2023-02-27T12:27:47.387Z,99368.81
2023-02-27T12:30:20.457Z,99365.25
2023-02-27T12:32:54.506Z,99356.03
2023-02-27T12:35:29.218Z,99356.56
2023-02-27T12:37:58.293Z,99344.28
2023-02-27T12:40:31.552Z,99342.41
2023-02-27T12:43:15.668Z,99340.25
2023-02-27T12:45:59.984Z,99343.91
2023-02-27T12:48:46.958Z,99350.72
2023-02-27T12:51:31.923Z,99338.97
2023-02-27T12:54:09.752Z,99339.00
2023-02-27T12:56:46.684Z,99341.91
2023-02-27T12:59:30.637Z,99342.19
2023-02-27T13:02:14.286Z,99347.16
2023-02-27T13:04:46.437Z,99348.47
2023-02-27T13:07:24.530Z,99348.81
2023-02-27T13:09:56.880Z,99354.88
2023-02-27T13:12:30.620Z,99349.81
2023-02-27T13:15:04.299Z,99356.38
2023-02-27T13:17:38.678Z,99342.03
2023-02-27T13:20:31.365Z,99348.47
2023-02-27T13:23:09.387Z,99339.75
2023-02-27T13:25:39.359Z,99341.06
2023-02-27T13:28:14.309Z,99341.50
2023-02-27T13:30:45.571Z,99342.38
2023-02-27T13:33:24.760Z,99334.56
2023-02-27T13:35:59.287Z,99332.75
2023-02-27T13:38:35.141Z,99336.88
2023-02-27T13:41:38.409Z,99341.25
2023-02-27T13:44:51.693Z,99348.63
2023-02-27T13:47:38.693Z,99345.59
2023-02-27T13:50:45.265Z,99340.44
2023-02-27T13:53:24.123Z,99341.47
2023-02-27T13:56:00.066Z,99329.06
2023-02-27T13:58:28.259Z,99326.28
2023-02-27T14:00:59.836Z,99325.63
2023-02-27T14:03:30.185Z,99338.84
2023-02-27T14:06:03.441Z,99342.06
2023-02-27T14:08:47.306Z,99341.69
2023-02-27T14:11:21.487Z,99349.53
2023-02-27T14:14:09.339Z,99344.16
2023-02-27T14:16:55.921Z,99354.03
2023-02-27T14:19:59.139Z,99347.75
2023-02-27T14:23:08.113Z,99341.75
2023-02-27T14:25:40.465Z,99357.78
2023-02-27T14:28:18.926Z,99347.22
2023-02-27T14:30:54.737Z,99351.66
2023-02-27T14:33:39.080Z,99354.75
2023-02-27T14:36:10.712Z,99354.50
2023-02-27T14:38:39.624Z,99351.59
2023-02-27T14:41:24.499Z,99356.78
2023-02-27T14:43:56.765Z,99349.13
2023-02-27T14:46:29.258Z,99349.41
2023-02-27T14:48:58.552Z,99349.94
2023-02-27T14:51:28.062Z,99350.22
2023-02-27T14:54:01.709Z,99359.25
2023-02-27T14:56:32.127Z,99358.03
2023-02-27T14:59:04.712Z,99357.84
2023-02-27T15:01:37.083Z,99347.38
2023-02-27T15:04:05.964Z,99366.41
2023-02-27T15:06:43.899Z,99368.22
2023-02-27T15:09:22.712Z,99362.47
2023-02-27T15:12:03.600Z,99370.16
2023-02-27T15:14:34.980Z,99379.31
2023-02-27T15:17:03.037Z,99368.56
2023-02-27T15:19:32.013Z,99374.75
2023-02-27T15:22:04.728Z,99380.94
2023-02-27T15:24:48.883Z,99383.47
2023-02-27T15:27:21.932Z,99386.38
2023-02-27T15:29:52.338Z,99379.53
2023-02-27T15:32:27.498Z,99382.50
2023-02-27T15:34:56.362Z,99389.41
2023-02-27T15:37:27.082Z,99396.47
2023-02-27T15:39:56.761Z,99400.34
2023-02-27T15:42:30.128Z,99391.63
2023-02-27T15:44:59.465Z,99401.63
2023-02-27T15:47:30.276Z,99405.31
2023-02-27T15:50:01.900Z,99398.63
2023-02-27T15:52:39.614Z,99405.69
2023-02-27T15:55:13.994Z,99394.06
2023-02-27T15:57:56.616Z,99403.00
2023-02-27T16:00:32.102Z,99407.06
2023-02-27T16:03:00.707Z,99409.47
2023-02-27T16:05:34.462Z,99413.03
2023-02-27T16:08:03.474Z,99409.38
2023-02-27T16:10:37.591Z,99416.00
2023-02-27T16:13:34.852Z,99421.03
2023-02-27T16:16:05.456Z,99420.16
2023-02-27T16:18:35.838Z,99413.38
2023-02-27T16:21:12.705Z,99426.47
2023-02-27T16:23:40.790Z,99428.66
2023-02-27T16:26:24.026Z,99432.56
2023-02-27T16:28:55.637Z,99442.88
2023-02-27T16:31:26.341Z,99440.25
2023-02-27T16:33:56.714Z,99445.38
2023-02-27T16:36:27.712Z,99450.97
2023-02-27T16:38:56.111Z,99447.03
2023-02-27T16:41:25.291Z,99458.06
2023-02-27T16:43:55.200Z,99451.41
2023-02-27T16:46:23.746Z,99465.66
2023-02-27T16:48:53.493Z,99466.56
2023-02-27T16:51:24.151Z,99466.16
2023-02-27T16:53:52.511Z,99477.97
2023-02-27T16:56:35.856Z,99478.84
2023-02-27T16:59:07.807Z,99478.25
2023-02-27T17:01:35.556Z,99471.84
2023-02-27T17:04:08.698Z,99485.94
2023-02-27T17:06:41.337Z,99477.44
2023-02-27T17:09:10.399Z,99482.69
2023-02-27T17:11:38.706Z,99494.75
2023-02-27T17:14:07.866Z,99491.66
2023-02-27T17:16:35.793Z,99491.47
2023-02-27T17:19:03.715Z,99500.66
2023-02-27T17:21:31.639Z,99492.06
2023-02-27T17:23:59.374Z,99489.72
2023-02-27T17:26:27.595Z,99494.00
2023-02-27T17:28:56.442Z,99493.94
2023-02-27T17:31:26.335Z,99499.88
2023-02-27T17:33:54.724Z,99501.13
2023-02-27T17:36:23.800Z,99499.84
2023-02-27T17:38:55.292Z,99510.47
2023-02-27T17:41:23.688Z,99509.59
2023-02-27T17:43:52.695Z,99511.44
2023-02-27T17:46:20.645Z,99515.06
2023-02-27T17:48:50.261Z,99511.75
2023-02-27T17:51:21.294Z,99516.94
2023-02-27T17:53:49.014Z,99521.47
2023-02-27T17:56:16.781Z,99514.16
2023-02-27T17:58:45.439Z,99523.06
2023-02-27T18:01:15.124Z,99526.31
2023-02-27T18:03:43.971Z,99527.19
2023-02-27T18:06:13.417Z,99520.44
2023-02-27T18:08:42.144Z,99531.09
2023-02-27T18:11:11.631Z,99530.78
2023-02-27T18:13:40.259Z,99526.59
2023-02-27T18:16:08.856Z,99527.25
2023-02-27T18:18:37.467Z,99534.63
2023-02-27T18:21:07.581Z,99534.94
2023-02-27T18:23:37.555Z,99530.34
2023-02-27T18:26:06.397Z,99533.53
2023-02-27T18:28:34.993Z,99537.00
2023-02-27T18:31:02.832Z,99530.38
2023-02-27T18:33:30.574Z,99537.28
2023-02-27T18:35:58.561Z,99533.97
2023-02-27T18:38:26.442Z,99541.16
2023-02-27T18:40:55.556Z,99537.00
2023-02-27T18:43:23.458Z,99545.44
2023-02-27T18:45:51.333Z,99545.63
2023-02-27T18:48:19.268Z,99542.19
2023-02-27T18:50:47.043Z,99536.16
2023-02-27T18:53:14.974Z,99539.59
2023-02-27T18:55:42.891Z,99544.19
2023-02-27T18:58:12.092Z,99548.19
2023-02-27T19:00:42.341Z,99548.63
2023-02-27T19:03:10.253Z,99555.41
2023-02-27T19:05:41.808Z,99551.16
2023-02-27T19:08:09.767Z,99559.91
2023-02-27T19:10:39.405Z,99555.03
2023-02-27T19:13:09.419Z,99567.63
2023-02-27T19:15:39.187Z,99567.72
2023-02-27T19:18:07.605Z,99568.78
2023-02-27T19:20:35.836Z,99566.31
2023-02-27T19:23:03.637Z,99565.63
2023-02-27T19:25:31.975Z,99566.66
2023-02-27T19:28:00.334Z,99566.16
2023-02-27T19:30:28.268Z,99562.19
2023-02-27T19:32:57.491Z,99568.94
2023-02-27T19:35:25.441Z,99572.69
2023-02-27T19:37:58.177Z,99571.09
2023-02-27T19:40:28.139Z,99572.69
2023-02-27T19:42:56.177Z,99575.22
2023-02-27T19:45:24.232Z,99569.44
2023-02-27T19:47:53.005Z,99565.88
2023-02-27T19:50:22.057Z,99565.91
2023-02-27T19:52:50.056Z,99575.66
2023-02-27T19:55:18.047Z,99571.06
2023-02-27T19:57:45.960Z,99574.00
2023-02-27T20:00:15.454Z,99577.53
2023-02-27T20:02:43.847Z,99568.16
2023-02-27T20:05:12.682Z,99577.25
2023-02-27T20:07:42.435Z,99567.81
2023-02-27T20:10:11.912Z,99568.59
2023-02-27T20:12:39.674Z,99576.59
2023-02-27T20:15:11.496Z,99578.97
2023-02-27T20:17:41.965Z,99564.41
2023-02-27T20:20:12.374Z,99556.13
2023-02-27T20:22:44.805Z,99554.59
2023-02-27T20:25:15.370Z,99559.69
2023-02-27T20:27:43.134Z,99549.13
2023-02-27T20:30:12.321Z,99551.31
2023-02-27T20:32:40.200Z,99558.13
2023-02-27T20:35:08.658Z,99551.06
2023-02-27T20:37:36.402Z,99557.25
2023-02-27T20:40:06.337Z,99561.09
2023-02-27T20:42:34.185Z,99554.06
2023-02-27T20:45:01.849Z,99548.75
2023-02-27T20:47:29.578Z,99542.75
2023-02-27T20:49:57.327Z,99546.50
2023-02-27T20:52:25.000Z,99546.19
2023-02-27T20:54:52.770Z,99547.94
2023-02-27T20:57:21.974Z,99535.75
2023-02-27T20:59:51.631Z,99543.56
2023-02-27T21:02:19.418Z,99537.91
2023-02-27T21:04:48.245Z,99539.53
2023-02-27T21:07:18.501Z,99536.50
2023-02-27T21:09:46.535Z,99537.69
2023-02-27T21:12:14.616Z,99536.31
2023-02-27T21:14:45.212Z,99531.19
2023-02-27T21:17:13.692Z,99541.22
2023-02-27T21:19:41.595Z,99533.66
2023-02-27T21:22:11.031Z,99542.53
2023-02-27T21:24:38.997Z,99538.47
2023-02-27T21:27:06.836Z,99524.31
2023-02-27T21:29:34.708Z,99532.94
2023-02-27T21:32:03.848Z,99530.28
2023-02-27T21:34:31.715Z,99534.91
2023-02-27T21:37:02.195Z,99529.78
2023-02-27T21:39:29.889Z,99523.06
2023-02-27T21:41:59.541Z,99533.63
2023-02-27T21:44:27.376Z,99525.34
2023-02-27T21:46:55.380Z,99528.63
2023-02-27T21:49:27.026Z,99530.16
2023-02-27T21:51:55.278Z,99520.50
2023-02-27T21:54:23.097Z,99528.34
2023-02-27T21:56:50.980Z,99517.63
2023-02-27T21:59:20.856Z,99511.13
2023-02-27T22:01:48.947Z,99519.28
2023-02-27T22:04:17.925Z,99514.16
2023-02-27T22:06:48.070Z,99503.84
2023-02-27T22:09:15.881Z,99516.81
2023-02-27T22:11:43.686Z,99507.31
2023-02-27T22:14:12.303Z,99519.03
2023-02-27T22:16:40.802Z,99512.44
2023-02-27T22:19:10.003Z,99507.59
2023-02-27T22:21:38.466Z,99511.38
2023-02-27T22:24:08.512Z,99503.81
2023-02-27T22:26:36.337Z,99507.03
2023-02-27T22:29:05.447Z,99514.94
2023-02-27T22:31:34.962Z,99504.06
2023-02-27T22:34:05.107Z,99501.63
2023-02-27T22:36:34.268Z,99503.81
2023-02-27T22:39:02.620Z,99506.25
2023-02-27T22:41:35.364Z,99509.09
2023-02-27T22:44:03.720Z,99502.69
2023-02-27T22:46:33.739Z,99498.91
2023-02-27T22:49:03.243Z,99497.28
2023-02-27T22:51:31.969Z,99499.44
2023-02-27T22:54:01.714Z,99497.56
2023-02-27T22:56:31.604Z,99495.19
2023-02-27T22:58:59.569Z,99494.34
2023-02-27T23:01:29.827Z,99506.44
2023-02-27T23:03:59.567Z,99500.03
2023-02-27T23:06:30.833Z,99508.13
2023-02-27T23:08:58.712Z,99505.91
2023-02-27T23:11:26.655Z,99502.22
2023-02-27T23:13:55.849Z,99507.03
2023-02-27T23:16:25.021Z,99501.63
2023-02-27T23:18:54.978Z,99505.13
2023-02-27T23:21:25.287Z,99504.34
2023-02-27T23:23:54.414Z,99499.50
2023-02-27T23:26:22.350Z,99509.81
2023-02-27T23:28:50.175Z,99510.84
2023-02-27T23:31:19.339Z,99502.22
2023-02-27T23:33:47.141Z,99502.22
2023-02-27T23:36:15.403Z,99510.34
2023-02-27T23:38:46.422Z,99499.81
2023-02-27T23:41:16.785Z,99510.59
2023-02-27T23:44:02.315Z,99503.84
2023-02-27T23:46:31.775Z,99502.22
2023-02-27T23:48:59.574Z,99505.50
2023-02-27T23:51:30.313Z,99507.06
2023-02-27T23:53:58.484Z,99505.47
2023-02-27T23:56:28.288Z,99516.84
2023-02-27T23:58:57.913Z,99499.47
